Time;durP1;ratioP1;P1;durP2;ratioP2;P2;SDS_P1;SDS_P2;PMS_P1;PMS_P2;Temp;Humidity;BMP_temperature;BMP_pressure;BME280_temperature;BME280_humidity;BME280_pressure;Samples;Min_cycle;Max_cycle;Signal;HPM_P1;HPM_P2
2020/12/31 00:01:16;;;;;;;0.83;0.83;;;4.90;99.90;;;;;;5061556;28;20216;-83
2020/12/31 00:03:41;;;;;;;0.70;0.70;;;4.90;99.90;;;;;;5055414;28;20187;-83
2020/12/31 00:06:07;;;;;;;0.20;0.17;;;4.90;99.90;;;;;;5051045;28;20217;-80
2020/12/31 00:08:32;;;;;;;0.17;0.17;;;4.90;99.90;;;;;;5050308;28;20251;-83
2020/12/31 00:10:58;;;;;;;0.40;0.40;;;4.80;99.90;;;;;;5063238;28;20713;-81
2020/12/31 00:13:24;;;;;;;0.10;0.10;;;4.80;99.90;;;;;;5048712;28;20298;-83
2020/12/31 00:15:49;;;;;;;0.63;0.60;;;4.80;99.90;;;;;;5047979;28;20216;-82
2020/12/31 00:18:15;;;;;;;0.47;0.47;;;4.90;99.90;;;;;;5048909;28;20219;-81
2020/12/31 00:20:40;;;;;;;0.93;0.50;;;4.90;99.90;;;;;;5048299;28;20211;-82
2020/12/31 00:23:06;;;;;;;0.10;0.10;;;4.90;99.90;;;;;;5049442;28;20231;-82
2020/12/31 00:25:31;;;;;;;0.20;0.20;;;4.90;99.90;;;;;;5049747;28;20204;-83
2020/12/31 00:27:57;;;;;;;0.30;0.30;;;4.90;99.90;;;;;;5041476;28;20262;-83
2020/12/31 00:30:22;;;;;;;0.90;0.53;;;4.90;99.90;;;;;;5047130;28;20238;-83
2020/12/31 00:32:49;;;;;;;0.30;0.30;;;5.00;99.90;;;;;;5048133;28;20300;-83
2020/12/31 00:35:27;;;;;;;0.77;0.73;;;5.00;99.90;;;;;;5056381;28;20228;-82
2020/12/31 00:37:53;;;;;;;0.40;0.40;;;5.10;99.90;;;;;;5048335;28;20236;-82
2020/12/31 00:40:19;;;;;;;0.00;0.00;;;5.10;99.90;;;;;;5062136;28;20851;-82
2020/12/31 00:42:46;;;;;;;1.97;0.40;;;5.20;99.90;;;;;;5038086;28;20201;-83
2020/12/31 00:45:11;;;;;;;4.23;0.30;;;5.20;99.90;;;;;;5047878;28;20192;-81
2020/12/31 00:47:37;;;;;;;0.50;0.50;;;5.10;99.90;;;;;;5045090;28;20215;-83
2020/12/31 00:50:03;;;;;;;0.50;0.40;;;5.20;99.90;;;;;;5051462;28;20204;-82
2020/12/31 00:52:29;;;;;;;0.77;0.70;;;5.20;99.90;;;;;;5047909;28;20214;-83
2020/12/31 00:54:54;;;;;;;0.17;0.10;;;5.10;99.90;;;;;;5054462;28;20219;-83
2020/12/31 00:57:20;;;;;;;0.40;0.37;;;5.10;99.90;;;;;;5049537;28;20184;-82
2020/12/31 00:59:45;;;;;;;0.40;0.33;;;5.10;99.90;;;;;;5057714;28;20204;-83
2020/12/31 01:02:11;;;;;;;0.00;0.00;;;5.20;99.90;;;;;;5050847;28;20233;-82
2020/12/31 01:04:36;;;;;;;0.77;0.60;;;5.10;99.90;;;;;;5054805;28;20541;-83
2020/12/31 01:07:02;;;;;;;0.20;0.20;;;5.10;99.90;;;;;;5053159;28;20203;-81
2020/12/31 01:09:27;;;;;;;0.80;0.40;;;5.00;99.90;;;;;;5050944;28;20228;-83
2020/12/31 01:11:57;;;;;;;0.20;0.20;;;5.00;99.90;;;;;;5048689;28;20299;-83
2020/12/31 01:14:23;;;;;;;0.00;0.00;;;4.90;99.90;;;;;;5052178;28;20220;-83
2020/12/31 01:16:49;;;;;;;0.77;0.73;;;5.00;99.90;;;;;;5051993;28;20279;-82
2020/12/31 01:19:16;;;;;;;0.60;0.33;;;5.00;99.90;;;;;;5059198;28;20190;-82
2020/12/31 01:21:45;;;;;;;0.90;0.37;;;5.10;99.90;;;;;;5060132;28;20300;-80
2020/12/31 01:24:12;;;;;;;0.10;0.10;;;5.00;99.90;;;;;;5054626;28;20219;-82
2020/12/31 01:26:38;;;;;;;0.00;0.00;;;5.00;99.90;;;;;;5051993;28;20764;-83
2020/12/31 01:29:03;;;;;;;0.40;0.40;;;5.10;99.90;;;;;;5041100;28;20267;-83
2020/12/31 01:31:29;;;;;;;0.37;0.37;;;5.10;99.90;;;;;;5046008;28;20206;-82
2020/12/31 01:33:55;;;;;;;0.10;0.10;;;5.10;99.90;;;;;;5059526;28;20218;-82
2020/12/31 01:36:21;;;;;;;1.07;0.53;;;5.00;99.90;;;;;;5056940;28;20185;-83
2020/12/31 01:38:47;;;;;;;0.50;0.43;;;5.00;99.90;;;;;;5059503;28;20233;-83
2020/12/31 01:41:14;;;;;;;0.23;0.20;;;4.90;99.90;;;;;;5054536;28;20199;-83
2020/12/31 01:43:40;;;;;;;0.13;0.13;;;4.90;99.90;;;;;;5045545;28;20683;-82
2020/12/31 01:46:10;;;;;;;0.50;0.40;;;4.80;99.90;;;;;;5060644;28;20191;-82
2020/12/31 01:48:37;;;;;;;0.33;0.23;;;4.90;99.90;;;;;;5046742;28;20699;-81
2020/12/31 01:51:03;;;;;;;0.10;0.10;;;4.90;99.90;;;;;;5058520;28;20224;-83
2020/12/31 01:53:28;;;;;;;0.83;0.50;;;5.00;99.90;;;;;;5051131;28;20223;-83
2020/12/31 01:55:56;;;;;;;0.10;0.10;;;5.00;99.90;;;;;;5054898;28;20231;-83
2020/12/31 01:58:21;;;;;;;1.30;0.73;;;4.90;99.90;;;;;;5058287;28;20181;-82
2020/12/31 02:00:47;;;;;;;0.57;0.50;;;4.90;99.90;;;;;;5047097;28;20202;-82
2020/12/31 02:03:13;;;;;;;0.40;0.40;;;4.80;99.90;;;;;;5047013;28;20239;-82
2020/12/31 02:05:38;;;;;;;0.27;0.27;;;4.70;99.90;;;;;;5049803;28;20193;-82
2020/12/31 02:08:05;;;;;;;0.50;0.50;;;4.60;99.90;;;;;;5062363;28;20672;-82
2020/12/31 02:10:31;;;;;;;0.20;0.20;;;4.60;99.90;;;;;;5037807;28;20194;-83
2020/12/31 02:12:57;;;;;;;4.47;0.57;;;4.50;99.90;;;;;;5051227;28;20723;-82
2020/12/31 02:15:22;;;;;;;0.43;0.43;;;4.40;99.90;;;;;;5048053;28;20242;-82
2020/12/31 02:17:48;;;;;;;1.50;0.63;;;4.30;99.90;;;;;;5043132;28;20250;-82
2020/12/31 02:20:14;;;;;;;2.20;0.70;;;4.20;99.90;;;;;;5055341;28;20639;-82
2020/12/31 02:22:39;;;;;;;0.67;0.67;;;4.10;99.90;;;;;;5059883;28;20645;-82
2020/12/31 02:25:05;;;;;;;0.30;0.30;;;4.00;99.90;;;;;;5059796;28;20187;-82
2020/12/31 02:27:30;;;;;;;0.23;0.23;;;4.00;99.90;;;;;;5045758;28;20241;-82
2020/12/31 02:29:56;;;;;;;0.70;0.70;;;3.90;99.90;;;;;;5050713;28;20196;-83
2020/12/31 02:32:22;;;;;;;0.20;0.10;;;3.80;99.90;;;;;;5050005;28;20252;-82
2020/12/31 02:34:47;;;;;;;0.30;0.30;;;3.70;99.90;;;;;;5050337;28;20214;-82
2020/12/31 02:37:13;;;;;;;0.50;0.43;;;3.60;99.90;;;;;;5044612;28;20256;-81
2020/12/31 02:39:38;;;;;;;0.30;0.30;;;3.60;99.90;;;;;;5057110;28;20725;-82
2020/12/31 02:42:04;;;;;;;0.50;0.50;;;3.60;99.90;;;;;;5047870;28;20210;-82
2020/12/31 02:44:29;;;;;;;0.40;0.40;;;3.50;99.90;;;;;;5048786;28;20194;-82
2020/12/31 02:46:55;;;;;;;0.53;0.53;;;3.60;99.90;;;;;;5045999;28;20192;-81
2020/12/31 02:49:20;;;;;;;0.77;0.23;;;3.60;99.90;;;;;;5046859;28;20194;-82
2020/12/31 02:51:47;;;;;;;0.30;0.30;;;3.50;99.90;;;;;;5054282;28;20214;-82
2020/12/31 02:54:13;;;;;;;0.37;0.37;;;3.50;99.90;;;;;;5052204;28;20202;-82
2020/12/31 02:56:38;;;;;;;0.67;0.60;;;3.50;99.90;;;;;;5051370;28;20268;-83
2020/12/31 02:59:16;;;;;;;0.20;0.20;;;3.50;99.90;;;;;;5050686;28;20214;-82
2020/12/31 03:01:41;;;;;;;0.70;0.70;;;3.60;99.90;;;;;;5045056;28;20585;-81
2020/12/31 03:04:07;;;;;;;1.40;0.70;;;3.60;99.90;;;;;;5053243;28;20183;-82
2020/12/31 03:06:32;;;;;;;0.20;0.20;;;3.50;99.90;;;;;;5062389;28;20183;-82
2020/12/31 03:08:58;;;;;;;1.23;0.53;;;3.50;99.90;;;;;;5051372;28;20201;-82
2020/12/31 03:11:25;;;;;;;0.33;0.33;;;3.50;99.90;;;;;;5047633;28;20198;-82
2020/12/31 03:13:52;;;;;;;0.60;0.60;;;3.50;99.90;;;;;;5064717;28;20367;-82
2020/12/31 03:16:18;;;;;;;0.63;0.63;;;3.50;99.90;;;;;;5052173;28;20175;-82
2020/12/31 03:18:44;;;;;;;0.47;0.33;;;3.60;99.90;;;;;;5063773;28;20184;-82
2020/12/31 03:21:10;;;;;;;1.00;0.97;;;3.60;99.90;;;;;;5042459;28;20278;-83
2020/12/31 03:23:36;;;;;;;0.13;0.13;;;3.60;99.90;;;;;;5044514;28;20239;-82
2020/12/31 03:26:01;;;;;;;0.23;0.23;;;3.60;99.90;;;;;;5048283;28;20174;-83
2020/12/31 03:28:27;;;;;;;0.43;0.40;;;3.50;99.90;;;;;;5051613;28;20185;-82
2020/12/31 03:30:53;;;;;;;0.30;0.30;;;3.50;99.90;;;;;;5047533;28;20181;-82
2020/12/31 03:33:18;;;;;;;1.70;0.20;;;3.50;99.90;;;;;;5050163;28;20240;-82
2020/12/31 03:35:46;;;;;;;0.77;0.77;;;3.50;99.90;;;;;;5043047;28;20842;-82
2020/12/31 03:38:13;;;;;;;1.13;0.70;;;3.50;99.90;;;;;;5052212;28;20212;-82
2020/12/31 03:40:39;;;;;;;0.27;0.27;;;3.60;99.90;;;;;;5050450;28;20182;-82
2020/12/31 03:43:05;;;;;;;0.20;0.20;;;3.70;99.90;;;;;;5049368;28;20716;-81
2020/12/31 03:45:31;;;;;;;0.50;0.50;;;3.70;99.90;;;;;;5051087;28;20191;-82
2020/12/31 03:47:57;;;;;;;0.10;0.10;;;3.60;99.90;;;;;;5036333;28;20190;-81
2020/12/31 03:50:23;;;;;;;0.53;0.30;;;3.60;99.90;;;;;;5051982;28;20211;-82
2020/12/31 03:52:49;;;;;;;0.47;0.47;;;3.70;99.90;;;;;;5051095;28;20236;-82
2020/12/31 03:55:15;;;;;;;0.10;0.10;;;3.70;99.90;;;;;;5051079;28;20199;-82
2020/12/31 03:57:41;;;;;;;0.33;0.33;;;3.70;99.90;;;;;;5042554;28;20269;-82
2020/12/31 04:00:07;;;;;;;0.20;0.20;;;3.80;99.90;;;;;;5049286;28;20320;-82
2020/12/31 04:02:32;;;;;;;0.30;0.30;;;3.80;99.90;;;;;;5042482;28;20202;-82
2020/12/31 04:05:01;;;;;;;0.40;0.40;;;3.90;99.90;;;;;;5046456;28;20186;-82
2020/12/31 04:07:27;;;;;;;0.20;0.20;;;3.90;99.90;;;;;;5061997;28;20796;-82
2020/12/31 04:09:53;;;;;;;0.20;0.20;;;3.90;99.90;;;;;;5050962;28;20197;-81
2020/12/31 04:12:18;;;;;;;0.17;0.17;;;3.70;99.90;;;;;;5047620;28;20221;-82
2020/12/31 04:14:44;;;;;;;0.10;0.10;;;3.60;99.90;;;;;;5040758;28;20221;-82
2020/12/31 04:17:11;;;;;;;1.87;0.43;;;3.30;99.90;;;;;;5050405;28;20175;-81
2020/12/31 04:19:39;;;;;;;0.47;0.47;;;3.20;99.90;;;;;;5050190;28;20184;-82
2020/12/31 04:22:04;;;;;;;0.33;0.33;;;3.30;99.90;;;;;;5049513;28;20294;-82
2020/12/31 04:24:30;;;;;;;0.10;0.10;;;3.40;99.90;;;;;;5061853;28;20718;-82
2020/12/31 04:26:55;;;;;;;0.30;0.30;;;3.50;99.90;;;;;;5057215;28;20187;-80
2020/12/31 04:29:21;;;;;;;0.93;0.40;;;3.60;99.90;;;;;;5057918;28;20546;-83
2020/12/31 04:31:46;;;;;;;0.07;0.07;;;3.50;99.90;;;;;;5053504;28;20203;-82
2020/12/31 04:34:12;;;;;;;0.53;0.53;;;3.50;99.90;;;;;;5044904;28;20674;-82
2020/12/31 04:36:38;;;;;;;1.40;0.30;;;3.50;99.90;;;;;;5053657;28;20195;-82
2020/12/31 04:39:04;;;;;;;0.93;0.30;;;3.40;99.90;;;;;;5079987;28;20208;-83
2020/12/31 04:41:30;;;;;;;4.53;0.80;;;3.30;99.90;;;;;;5070579;28;20225;-81
2020/12/31 04:43:56;;;;;;;0.30;0.30;;;3.30;99.90;;;;;;5072369;28;20178;-81
2020/12/31 04:46:23;;;;;;;0.17;0.17;;;3.40;99.90;;;;;;5074027;28;20210;-82
2020/12/31 04:49:19;;;;;;;0.13;0.13;;;3.30;99.90;;;;;;5070968;28;20232;-81
2020/12/31 04:51:48;;;;;;;0.17;0.17;;;3.50;99.90;;;;;;5071759;28;20225;-80
2020/12/31 04:54:14;;;;;;;0.17;0.17;;;3.50;99.90;;;;;;5071675;28;20212;-81
2020/12/31 04:56:39;;;;;;;0.30;0.30;;;3.20;99.90;;;;;;5070338;28;20171;-80
2020/12/31 04:59:06;;;;;;;0.50;0.23;;;3.20;99.90;;;;;;5056185;28;20175;-81
2020/12/31 05:01:32;;;;;;;1.00;0.87;;;3.30;99.90;;;;;;5069449;28;20297;-82
2020/12/31 05:03:58;;;;;;;3.60;0.37;;;3.30;99.90;;;;;;5077828;28;20254;-80
2020/12/31 05:06:26;;;;;;;0.37;0.20;;;3.40;99.90;;;;;;5071107;28;20182;-80
2020/12/31 05:08:52;;;;;;;0.77;0.37;;;3.40;99.90;;;;;;5069060;28;20249;-80
2020/12/31 05:11:18;;;;;;;0.20;0.20;;;3.50;99.90;;;;;;5069977;28;20186;-82
2020/12/31 05:13:49;;;;;;;0.10;0.10;;;3.50;99.90;;;;;;5072865;28;20596;-81
2020/12/31 05:16:27;;;;;;;0.20;0.20;;;3.50;99.90;;;;;;5067945;28;20210;-81
2020/12/31 05:18:52;;;;;;;0.60;0.57;;;3.50;99.90;;;;;;5062583;28;20188;-81
2020/12/31 05:21:18;;;;;;;0.47;0.47;;;3.70;99.90;;;;;;5062018;28;20191;-81
2020/12/31 05:23:44;;;;;;;2.67;2.00;;;3.80;99.90;;;;;;5062750;28;20648;-80
2020/12/31 05:26:11;;;;;;;0.30;0.30;;;3.80;99.90;;;;;;5054175;28;20201;-80
2020/12/31 05:28:37;;;;;;;0.27;0.27;;;3.90;99.90;;;;;;5047768;28;20193;-80
2020/12/31 05:31:09;;;;;;;0.77;0.60;;;4.00;99.90;;;;;;5045329;28;20258;-81
2020/12/31 05:33:39;;;;;;;0.43;0.43;;;4.00;99.90;;;;;;5052792;28;20563;-80
2020/12/31 05:36:11;;;;;;;0.43;0.40;;;4.20;99.90;;;;;;5048226;28;20220;-81
2020/12/31 05:38:37;;;;;;;0.20;0.20;;;4.10;99.90;;;;;;5041572;28;20705;-79
2020/12/31 05:41:03;;;;;;;0.20;0.20;;;4.10;99.90;;;;;;5049038;28;20191;-81
2020/12/31 05:43:29;;;;;;;0.20;0.20;;;4.00;99.90;;;;;;5052542;28;20197;-80
2020/12/31 05:46:12;;;;;;;0.60;0.60;;;4.00;99.90;;;;;;5055596;28;20278;-81
2020/12/31 05:48:38;;;;;;;0.43;0.40;;;4.00;99.90;;;;;;5038055;28;20191;-81
2020/12/31 05:51:29;;;;;;;0.83;0.83;;;3.90;99.90;;;;;;5047368;28;20191;-81
2020/12/31 05:54:07;;;;;;;1.80;0.30;;;3.00;99.90;;;;;;5045072;28;20240;-81
2020/12/31 05:56:36;;;;;;;0.40;0.40;;;3.00;99.90;;;;;;5048675;28;20189;-81
2020/12/31 05:59:24;;;;;;;0.10;0.10;;;2.80;99.90;;;;;;5052571;28;20188;-81
2020/12/31 06:01:56;;;;;;;0.10;0.10;;;2.80;99.90;;;;;;5047561;28;20210;-80
2020/12/31 06:04:46;;;;;;;1.03;0.33;;;2.70;99.90;;;;;;5049417;28;20190;-79
2020/12/31 06:07:29;;;;;;;0.83;0.57;;;2.70;99.90;;;;;;5040148;28;20190;-81
2020/12/31 06:10:03;;;;;;;1.70;0.63;;;2.70;99.90;;;;;;5059729;28;20739;-81
2020/12/31 06:12:47;;;;;;;0.83;0.83;;;2.70;99.90;;;;;;5049141;28;20685;-81
2020/12/31 06:15:17;;;;;;;0.33;0.33;;;2.90;99.90;;;;;;5064868;28;20575;-81
2020/12/31 06:17:47;;;;;;;0.33;0.30;;;2.90;99.90;;;;;;5049882;28;20188;-84
2020/12/31 06:20:15;;;;;;;0.30;0.30;;;2.80;99.90;;;;;;5042617;28;20205;-84
2020/12/31 06:23:05;;;;;;;1.10;0.20;;;3.00;99.90;;;;;;5048216;28;20217;-81
2020/12/31 06:25:45;;;;;;;0.17;0.17;;;2.90;99.90;;;;;;5044194;28;20186;-82
2020/12/31 06:28:10;;;;;;;0.33;0.33;;;2.70;99.90;;;;;;5057492;28;20218;-80
2020/12/31 06:30:38;;;;;;;0.30;0.30;;;2.90;99.90;;;;;;5044792;28;20233;-80
2020/12/31 06:33:11;;;;;;;0.50;0.33;;;2.80;99.90;;;;;;5041488;28;20202;-78
2020/12/31 06:35:39;;;;;;;0.57;0.57;;;2.90;99.90;;;;;;5051562;28;20198;-80
2020/12/31 06:38:04;;;;;;;0.47;0.47;;;3.00;99.90;;;;;;5050916;28;20220;-80
2020/12/31 06:40:33;;;;;;;0.37;0.30;;;3.00;99.90;;;;;;5043475;28;20878;-79
2020/12/31 06:43:04;;;;;;;4.80;0.50;;;3.10;99.90;;;;;;5044635;28;20207;-80
2020/12/31 06:45:57;;;;;;;0.13;0.13;;;3.30;99.90;;;;;;5046508;28;20209;-79
2020/12/31 06:48:26;;;;;;;0.53;0.53;;;3.40;99.90;;;;;;5041314;28;20182;-80
2020/12/31 06:51:06;;;;;;;0.50;0.50;;;3.60;99.90;;;;;;5062054;28;20187;-83
2020/12/31 06:53:33;;;;;;;0.20;0.20;;;3.70;99.90;;;;;;5055600;28;20243;-83
2020/12/31 06:56:08;;;;;;;1.03;0.70;;;3.80;99.90;;;;;;5056263;28;20214;-83
2020/12/31 06:58:34;;;;;;;0.47;0.47;;;3.80;99.90;;;;;;5053105;28;20192;-84
2020/12/31 07:01:01;;;;;;;0.67;0.40;;;3.90;99.90;;;;;;5051715;28;20176;-81
2020/12/31 07:03:39;;;;;;;0.10;0.10;;;3.80;99.90;;;;;;5056516;28;20262;-84
2020/12/31 07:06:20;;;;;;;0.60;0.60;;;3.80;99.90;;;;;;5047533;28;20250;-81
2020/12/31 07:08:47;;;;;;;0.60;0.60;;;3.80;99.90;;;;;;5060047;28;20548;-84
2020/12/31 07:11:12;;;;;;;0.50;0.50;;;3.80;99.90;;;;;;5055354;28;20190;-81
2020/12/31 07:13:39;;;;;;;0.57;0.57;;;3.80;99.90;;;;;;5048502;28;20722;-82
2020/12/31 07:16:05;;;;;;;0.20;0.20;;;3.90;99.90;;;;;;5053011;28;20275;-81
2020/12/31 07:18:32;;;;;;;0.40;0.40;;;3.90;99.90;;;;;;5053121;28;20294;-80
2020/12/31 07:20:59;;;;;;;0.73;0.73;;;3.90;99.90;;;;;;5048190;28;20213;-81
2020/12/31 07:23:38;;;;;;;0.40;0.40;;;3.90;99.90;;;;;;5046896;28;20213;-82
2020/12/31 07:26:04;;;;;;;0.40;0.40;;;3.90;99.90;;;;;;5048030;28;20187;-82
2020/12/31 07:28:29;;;;;;;0.30;0.30;;;3.90;99.90;;;;;;5051199;28;20188;-83
2020/12/31 07:30:55;;;;;;;0.67;0.67;;;3.90;99.90;;;;;;5049438;28;20202;-81
2020/12/31 07:33:34;;;;;;;0.73;0.50;;;3.90;99.90;;;;;;5054188;28;20205;-81
2020/12/31 07:36:11;;;;;;;0.30;0.30;;;3.90;99.90;;;;;;5043389;28;20213;-82
2020/12/31 07:38:37;;;;;;;0.53;0.47;;;3.80;99.90;;;;;;5054419;28;20209;-81
2020/12/31 07:41:03;;;;;;;0.20;0.20;;;3.80;99.90;;;;;;5054876;28;20190;-81
2020/12/31 07:43:30;;;;;;;0.10;0.10;;;3.90;99.90;;;;;;5058653;28;20312;-81
2020/12/31 07:46:00;;;;;;;0.70;0.40;;;3.90;99.90;;;;;;5048318;28;20190;-82
2020/12/31 07:48:27;;;;;;;0.20;0.20;;;3.90;99.90;;;;;;5046144;28;20186;-81
2020/12/31 07:50:55;;;;;;;0.50;0.50;;;3.80;99.90;;;;;;5053612;28;20189;-81
2020/12/31 07:53:21;;;;;;;0.33;0.33;;;3.90;99.90;;;;;;5050443;28;20220;-81
2020/12/31 07:55:48;;;;;;;0.57;0.57;;;3.90;99.90;;;;;;5049016;28;20205;-82
2020/12/31 07:58:17;;;;;;;0.37;0.37;;;3.90;99.90;;;;;;5051278;28;20181;-81
2020/12/31 08:00:42;;;;;;;0.60;0.60;;;3.90;99.90;;;;;;5046530;28;20232;-82
2020/12/31 08:03:09;;;;;;;5.47;1.03;;;3.80;99.90;;;;;;5053858;28;20202;-82
2020/12/31 08:05:34;;;;;;;2.23;0.67;;;3.70;99.90;;;;;;5053844;28;20187;-82
2020/12/31 08:08:00;;;;;;;1.47;0.53;;;3.80;99.90;;;;;;5053207;28;20924;-82
2020/12/31 08:10:26;;;;;;;0.70;0.70;;;3.80;99.90;;;;;;5051305;28;20185;-83
2020/12/31 08:13:03;;;;;;;0.63;0.40;;;3.80;99.90;;;;;;5057884;28;20725;-82
2020/12/31 08:15:29;;;;;;;0.20;0.20;;;3.80;99.90;;;;;;5056013;28;20209;-81
2020/12/31 08:17:57;;;;;;;0.20;0.20;;;3.80;99.90;;;;;;5063377;28;20174;-81
2020/12/31 08:20:32;;;;;;;0.50;0.50;;;3.80;99.90;;;;;;5050785;28;20175;-81
2020/12/31 08:23:03;;;;;;;0.10;0.10;;;3.90;99.90;;;;;;5046272;28;20280;-80
2020/12/31 08:25:36;;;;;;;0.73;0.73;;;3.90;99.90;;;;;;5052176;28;20190;-80
2020/12/31 08:28:04;;;;;;;0.20;0.20;;;4.00;99.90;;;;;;5025849;28;20236;-80
2020/12/31 08:30:32;;;;;;;0.80;0.77;;;4.00;99.90;;;;;;5032841;28;20191;-82
2020/12/31 08:32:58;;;;;;;0.17;0.17;;;4.00;99.90;;;;;;5036850;28;20515;-80
2020/12/31 08:35:28;;;;;;;0.50;0.50;;;4.00;99.90;;;;;;5033116;28;20586;-81
2020/12/31 08:38:13;;;;;;;2.07;0.50;;;4.10;99.90;;;;;;5055115;28;20184;-81
2020/12/31 08:40:53;;;;;;;1.57;0.70;;;4.10;99.90;;;;;;5049771;28;20196;-82
2020/12/31 08:43:29;;;;;;;0.07;0.07;;;4.20;99.90;;;;;;5041224;28;20202;-82
2020/12/31 08:45:58;;;;;;;0.40;0.40;;;4.10;99.90;;;;;;5043494;28;20182;-85
2020/12/31 08:48:30;;;;;;;0.60;0.60;;;4.10;99.90;;;;;;5050379;28;20187;-83
2020/12/31 08:51:15;;;;;;;0.30;0.30;;;4.20;99.90;;;;;;5042867;28;20725;-79
2020/12/31 08:53:50;;;;;;;0.50;0.30;;;4.20;99.90;;;;;;5050515;28;20232;-80
2020/12/31 08:56:16;;;;;;;0.40;0.40;;;4.20;99.90;;;;;;5045382;28;20218;-79
2020/12/31 08:58:45;;;;;;;0.33;0.33;;;4.30;99.90;;;;;;5059820;28;20662;-79
2020/12/31 09:01:27;;;;;;;0.73;0.30;;;4.30;99.90;;;;;;5042036;28;20183;-79
2020/12/31 09:04:18;;;;;;;0.10;0.10;;;4.40;99.90;;;;;;5046194;28;20182;-81
2020/12/31 09:06:57;;;;;;;0.20;0.20;;;4.40;99.90;;;;;;5044787;28;20209;-79
2020/12/31 09:09:27;;;;;;;0.23;0.23;;;4.20;99.90;;;;;;5058145;28;20702;-79
2020/12/31 09:12:06;;;;;;;0.20;0.20;;;4.20;99.90;;;;;;5042695;28;20212;-80
2020/12/31 09:14:34;;;;;;;0.73;0.73;;;4.20;99.90;;;;;;5053390;28;20198;-80
2020/12/31 09:17:00;;;;;;;0.50;0.50;;;4.10;99.90;;;;;;5040859;28;20202;-80
2020/12/31 09:19:26;;;;;;;0.40;0.40;;;4.10;99.90;;;;;;5046172;28;20890;-79
2020/12/31 09:21:52;;;;;;;0.87;0.47;;;4.00;99.90;;;;;;5039242;28;20202;-79
2020/12/31 09:24:20;;;;;;;0.40;0.30;;;4.00;99.90;;;;;;5045213;28;20181;-80
2020/12/31 09:26:56;;;;;;;0.17;0.17;;;4.00;99.90;;;;;;5052089;28;20181;-80
2020/12/31 09:29:23;;;;;;;0.10;0.10;;;4.00;99.90;;;;;;5062588;28;20190;-80
2020/12/31 09:31:49;;;;;;;0.10;0.10;;;3.90;99.90;;;;;;5049864;28;21123;-79
2020/12/31 09:34:15;;;;;;;0.13;0.13;;;3.80;99.90;;;;;;5039813;28;20178;-81
2020/12/31 09:36:41;;;;;;;0.13;0.13;;;3.70;99.90;;;;;;5047026;28;20213;-80
2020/12/31 09:39:07;;;;;;;0.43;0.43;;;3.80;99.90;;;;;;5054439;28;20826;-80
2020/12/31 09:41:33;;;;;;;1.23;0.90;;;3.70;99.90;;;;;;5040993;28;20209;-81
2020/12/31 09:43:58;;;;;;;0.20;0.20;;;3.80;99.90;;;;;;5051362;28;20174;-80
2020/12/31 09:46:24;;;;;;;0.20;0.20;;;3.80;99.90;;;;;;5050828;28;20187;-79
2020/12/31 09:48:50;;;;;;;0.40;0.40;;;3.80;99.90;;;;;;5046052;28;20226;-80
2020/12/31 09:51:16;;;;;;;0.27;0.27;;;3.80;99.90;;;;;;5055887;28;20221;-80
2020/12/31 09:53:42;;;;;;;0.13;0.13;;;3.70;99.90;;;;;;5059511;28;20758;-80
2020/12/31 09:56:08;;;;;;;0.10;0.10;;;3.70;99.90;;;;;;5051823;28;20292;-80
2020/12/31 09:58:34;;;;;;;0.10;0.10;;;3.70;99.90;;;;;;5060941;28;20185;-80
2020/12/31 10:01:01;;;;;;;0.10;0.10;;;3.70;99.90;;;;;;5063904;28;20246;-79
2020/12/31 10:03:26;;;;;;;0.23;0.20;;;3.60;99.90;;;;;;5059167;28;20256;-80
2020/12/31 10:05:52;;;;;;;0.10;0.10;;;3.70;99.90;;;;;;5043595;28;20600;-79
2020/12/31 10:08:18;;;;;;;0.10;0.10;;;3.70;99.90;;;;;;5042925;28;20198;-81
2020/12/31 10:10:44;;;;;;;0.13;0.13;;;3.80;99.90;;;;;;5064584;28;20190;-80
2020/12/31 10:13:10;;;;;;;0.00;0.00;;;3.90;99.90;;;;;;5045544;28;20353;-81
2020/12/31 10:15:36;;;;;;;0.53;0.40;;;3.90;99.90;;;;;;5047476;28;20855;-80
2020/12/31 10:18:01;;;;;;;0.10;0.10;;;3.90;99.90;;;;;;5042692;28;20187;-78
2020/12/31 10:20:27;;;;;;;0.10;0.10;;;3.80;99.90;;;;;;5053441;28;20181;-80
2020/12/31 10:22:53;;;;;;;2.30;0.70;;;3.90;99.90;;;;;;5048561;28;20698;-80
2020/12/31 10:25:18;;;;;;;0.50;0.30;;;3.90;99.90;;;;;;5048972;28;20196;-79
2020/12/31 10:27:44;;;;;;;0.20;0.20;;;4.00;99.90;;;;;;5051314;28;20706;-81
2020/12/31 10:30:09;;;;;;;0.00;0.00;;;4.00;99.90;;;;;;5054240;28;20191;-80
2020/12/31 10:32:35;;;;;;;0.13;0.13;;;4.00;99.90;;;;;;5040877;28;20217;-80
2020/12/31 10:35:00;;;;;;;0.50;0.50;;;4.00;99.90;;;;;;5041432;28;20238;-79
2020/12/31 10:37:26;;;;;;;0.17;0.17;;;4.00;99.90;;;;;;5041046;28;20181;-80
2020/12/31 10:39:53;;;;;;;1.33;0.37;;;4.00;99.90;;;;;;5050629;28;20237;-79
2020/12/31 10:42:18;;;;;;;0.23;0.23;;;4.00;99.90;;;;;;5043934;28;20205;-81
2020/12/31 10:44:44;;;;;;;0.63;0.63;;;4.00;99.90;;;;;;5050741;28;20235;-81
2020/12/31 10:47:09;;;;;;;1.20;0.67;;;3.90;99.90;;;;;;5051301;28;20185;-81
2020/12/31 10:49:35;;;;;;;0.10;0.10;;;3.90;99.90;;;;;;5044138;28;20193;-80
2020/12/31 10:52:01;;;;;;;0.10;0.10;;;3.90;99.90;;;;;;5046522;28;20674;-81
2020/12/31 10:54:26;;;;;;;0.20;0.20;;;4.00;99.90;;;;;;5052602;28;20772;-81
2020/12/31 10:56:56;;;;;;;0.30;0.30;;;4.00;99.90;;;;;;5045333;28;20175;-81
2020/12/31 10:59:21;;;;;;;0.10;0.10;;;4.00;99.90;;;;;;5038644;28;20175;-80
2020/12/31 11:01:54;;;;;;;0.10;0.10;;;4.00;99.90;;;;;;5041685;28;20670;-80
2020/12/31 11:04:20;;;;;;;0.17;0.17;;;4.10;99.90;;;;;;5050590;28;20558;-80
2020/12/31 11:06:46;;;;;;;0.23;0.23;;;4.10;99.90;;;;;;5044944;28;20534;-81
2020/12/31 11:09:11;;;;;;;0.37;0.37;;;4.10;99.90;;;;;;5041747;28;20186;-81
2020/12/31 11:11:39;;;;;;;0.10;0.10;;;4.20;99.90;;;;;;5048383;28;20214;-80
2020/12/31 11:14:05;;;;;;;0.30;0.30;;;4.20;99.90;;;;;;5051922;28;20182;-81
2020/12/31 11:16:31;;;;;;;0.17;0.17;;;4.20;99.90;;;;;;5045164;28;20207;-81
2020/12/31 11:18:56;;;;;;;0.10;0.10;;;4.00;99.90;;;;;;5048878;28;20189;-80
2020/12/31 11:21:23;;;;;;;0.10;0.10;;;4.10;99.90;;;;;;5052022;28;20181;-81
2020/12/31 11:23:49;;;;;;;0.37;0.37;;;4.10;99.90;;;;;;5055182;28;20248;-81
2020/12/31 11:26:19;;;;;;;0.33;0.33;;;4.10;99.90;;;;;;5044099;28;20187;-81
2020/12/31 11:28:46;;;;;;;0.30;0.30;;;4.10;99.90;;;;;;5051302;28;20234;-81
2020/12/31 11:31:12;;;;;;;0.53;0.53;;;4.20;99.90;;;;;;5037008;28;21045;-80
2020/12/31 11:33:46;;;;;;;0.30;0.30;;;4.10;99.90;;;;;;5042163;28;20218;-80
2020/12/31 11:36:12;;;;;;;0.47;0.47;;;4.10;99.90;;;;;;5044491;28;20230;-81
2020/12/31 11:38:38;;;;;;;0.30;0.30;;;4.20;99.90;;;;;;5045881;28;20203;-81
2020/12/31 11:41:05;;;;;;;0.20;0.20;;;4.20;99.90;;;;;;5042976;28;20185;-82
2020/12/31 11:43:31;;;;;;;0.10;0.10;;;4.40;99.90;;;;;;5037945;28;20184;-85
2020/12/31 11:45:57;;;;;;;0.17;0.17;;;4.30;99.90;;;;;;5043342;28;20179;-84
2020/12/31 11:48:23;;;;;;;0.57;0.57;;;4.30;99.90;;;;;;5062173;28;20173;-86
2020/12/31 11:50:51;;;;;;;0.30;0.20;;;4.20;99.90;;;;;;5049083;28;20563;-85
2020/12/31 11:53:20;;;;;;;1.07;0.60;;;4.10;99.90;;;;;;5044132;28;20197;-86
2020/12/31 11:55:46;;;;;;;0.20;0.20;;;4.10;99.90;;;;;;5049177;28;20854;-84
2020/12/31 11:58:13;;;;;;;0.50;0.50;;;4.10;99.90;;;;;;5045188;28;20182;-86
2020/12/31 12:00:39;;;;;;;0.20;0.20;;;4.20;99.90;;;;;;5059365;28;20186;-85
2020/12/31 12:03:04;;;;;;;0.43;0.33;;;4.10;99.90;;;;;;5058857;28;20202;-84
2020/12/31 12:05:32;;;;;;;0.20;0.20;;;4.20;99.90;;;;;;5062213;28;20275;-86
2020/12/31 12:08:00;;;;;;;0.20;0.20;;;4.20;99.90;;;;;;5041335;28;20874;-86
2020/12/31 12:10:28;;;;;;;0.10;0.10;;;4.20;99.90;;;;;;5048077;28;20203;-85
2020/12/31 12:12:54;;;;;;;2.20;2.10;;;4.20;99.90;;;;;;5039183;28;20229;-86
2020/12/31 12:15:19;;;;;;;0.20;0.20;;;4.20;99.90;;;;;;5046061;28;20205;-85
2020/12/31 12:17:46;;;;;;;0.83;0.50;;;4.10;99.90;;;;;;5048511;28;20189;-85
2020/12/31 12:20:12;;;;;;;0.23;0.23;;;4.10;99.90;;;;;;5050381;28;20643;-84
2020/12/31 12:22:38;;;;;;;0.17;0.17;;;4.10;99.90;;;;;;5046296;28;20203;-85
2020/12/31 12:25:05;;;;;;;0.10;0.10;;;4.10;99.90;;;;;;5037183;28;20820;-85
2020/12/31 12:27:31;;;;;;;0.20;0.20;;;4.10;99.90;;;;;;5049128;28;20197;-85
2020/12/31 12:29:56;;;;;;;0.50;0.30;;;4.00;99.90;;;;;;5047432;28;20738;-84
2020/12/31 12:32:22;;;;;;;0.10;0.10;;;4.00;99.90;;;;;;5042618;28;20206;-86
2020/12/31 12:34:53;;;;;;;0.20;0.20;;;4.00;99.90;;;;;;5043618;28;20589;-85
2020/12/31 12:37:22;;;;;;;0.43;0.20;;;4.00;99.90;;;;;;5036688;28;20236;-85
2020/12/31 12:39:48;;;;;;;0.10;0.10;;;4.00;99.90;;;;;;5041471;28;20239;-85
2020/12/31 12:42:13;;;;;;;0.07;0.07;;;4.00;99.90;;;;;;5039872;28;20679;-86
2020/12/31 12:44:39;;;;;;;0.10;0.10;;;3.80;99.90;;;;;;5036959;28;20311;-84
2020/12/31 12:47:04;;;;;;;0.23;0.23;;;3.70;99.90;;;;;;5060346;28;20655;-87
2020/12/31 12:49:30;;;;;;;0.37;0.20;;;3.70;99.90;;;;;;5046529;28;20194;-87
2020/12/31 12:51:55;;;;;;;0.20;0.20;;;3.60;99.90;;;;;;5050944;28;20213;-84
2020/12/31 12:54:21;;;;;;;0.10;0.10;;;3.70;99.90;;;;;;5048104;28;20246;-82
2020/12/31 12:56:51;;;;;;;0.10;0.10;;;3.80;99.90;;;;;;5055031;28;20186;-83
2020/12/31 12:59:19;;;;;;;0.20;0.20;;;3.90;99.90;;;;;;5056287;28;20205;-83
2020/12/31 13:01:45;;;;;;;0.30;0.30;;;4.00;99.90;;;;;;5048107;28;20293;-84